Terminal Aerodrome Forecast
Issued by NWS Billings, MT

Home | Current Version | Previous Version | Text Only | Print | Product List | Glossary On
Versions: 1 2 3 4 5 6 7 8 9 10 11 12 13 14 15 16 17 18 19 20 21 22 23 24 25 26 27 28
000
FTUS45 KBYZ 200644 AAA
TAFSHR
TAF AMD
KSHR 200644Z 2007/2106 31006KT 2SM -SN BR FEW004 OVC019
     FM200900 33006KT P6SM -SN SCT050 BKN070
     FM201500 31012KT P6SM SCT070 BKN100
     FM202000 VRB06KT P6SM SCT070 BKN100=

USA.gov is the U.S. government's official web portal to all federal, state and local government web resources and services.